Nettlecreek, Illinois
Current Conditions -  °F | °C
As of 4:15 AM on Sunday 25 Jan 2015 (Local Time) from KC09 Reporting Station
Haze Haze  
Wind Chill: 28°   Ceiling: Unl
Heat Index: 33°   Visibility: 5mi
Dew Point: 33°   Wind: 6mph
Humidity: 98%   Direction: 60°ENE
Pressure: 29.65"   Gusts: NA
Location:  41.5124°N, 88.5214°W
Report Text: KC09 251015Z AUTO 06005KT 5SM BR SCT011 01/01 A2965 RMK AO2 T00080005
Loading
Personal Weather Stations






























Interactive Weather Map New forecast layout! Learn more

10-Day Weather Forecast

Advertisements
Track Severe Weather on mobile